НПС Морки

Карта отелей и гостиниц, располагающихся рядом с аэропортом НПС Морки :

НПС Морки Марий Эл 56° 25' 56.1684" N, 49° 3' 18.8604" E
Код аэродрома ИКАО
HHN8
Код аэродрома RU
ХХН8
Координаты
N56.43227° E049.05524°
Превышение над уровнем моря
118
Основная полоса
14/32
Курс магнитный
138,5/318,5
Длина основной ВПП
25
Ширина основной ВПП
22
Покрытие основной ВПП
Твёрдое
Освещение ВПП
Нет
Тип: 
Вертодром
Класс аэродрома: 
Принадлежность: 
ГА
Статус: 
Действующий
Сайт: 
E-mail аэродрома: 
Страна: 
Россия
Регион: 
Марий Эл
Город: 
Дополнительная информация: 
Владелец ПП: нет данных. Имеет нормативную дневную опознавательную маркировку.

Найти трансфер

С помощью этой формы Вы можете найти трансфер из аэропорта НПС Морки в город, аэропорт или вокзал:

Карта места

Javascript is required to view this map.

Погода в аэропортах:

Авиационная погода в аэропорту Имени Алексея Леонова

Регион: 
Погода METAR: 
UNEE 261730Z 21005MPS 4800 -SHSN SCT040CB M24/M28 Q1031 R23/450545 NOSIG RMK QFE750
Время наблюдения
2021-02-26T17:30:00Z
Температура C
-24.0
Точка росы
-28.0
Направление ветра
210
Скорость ветра (узлы)
10
Метео видимость
2.98
Явления погоды
-SHSN
Условия полета
IFR
Аэропорт подробнее: 

Авиационная погода в Ульяновске

Регион: 
Погода METAR: 
UWLW 261800Z 16008MPS 1300 1100S R20/P2000D SN BLSN OVC006 M11/M13 Q1003 R20/494030 NOSIG RMK QFE747
Время наблюдения
2021-02-26T18:00:00Z
Температура C
-11.0
Точка росы
-13.0
Направление ветра
160
Скорость ветра (узлы)
16
Метео видимость
0.81
Явления погоды
BLSN SN
Условия полета
LIFR
Аэропорт подробнее: 

Авиационная погода в Дашогузе

Регион: 
Погода METAR: 
UTAT 261800Z 19012KT 9999 -SN OVC033 M02/M06 Q1025 R08/CLRD70 NOSIG
Время наблюдения
2021-02-26T18:00:00Z
Температура C
-2.0
Точка росы
-6.0
Направление ветра
190
Скорость ветра (узлы)
12
Метео видимость
6.21
Явления погоды
-SN
Условия полета
VFR

Авиационная погода в Берлевоге

Регион: 
Погода METAR: 
ENBV 261750Z 33019KT 9999 -SHSN BKN020 01/M03 Q1005
Время наблюдения
2021-02-26T17:50:00Z
Температура C
1.0
Точка росы
-3.0
Направление ветра
330
Скорость ветра (узлы)
19
Метео видимость
6.21
Явления погоды
-SHSN
Условия полета
MVFR